createdAt,value
2022-09-22T00:03:52.443Z,6.30
2022-09-22T00:06:01.973Z,5.85
2022-09-22T00:08:03.429Z,5.50
2022-09-22T00:12:07.020Z,6.07
2022-09-22T00:14:10.742Z,5.30
2022-09-22T00:16:13.553Z,5.88
2022-09-22T00:18:15.033Z,5.68
2022-09-22T00:22:19.257Z,5.30
2022-09-22T00:24:22.239Z,6.28
2022-09-22T00:26:24.403Z,6.35
2022-09-22T00:28:25.899Z,5.20
2022-09-22T00:30:27.332Z,5.72
2022-09-22T00:34:30.084Z,6.25
2022-09-22T00:38:35.433Z,6.85
2022-09-22T00:40:37.208Z,5.07
2022-09-22T00:42:38.755Z,5.80
2022-09-22T00:44:41.004Z,5.07
2022-09-22T00:46:46.102Z,6.85
2022-09-22T00:48:51.473Z,5.97
2022-09-22T00:50:54.537Z,5.32
2022-09-22T00:53:00.578Z,5.22
2022-09-22T00:55:07.002Z,5.80
2022-09-22T00:57:13.567Z,6.68
2022-09-22T00:59:19.044Z,6.25
2022-09-22T01:01:20.903Z,5.93
2022-09-22T01:03:28.987Z,5.53
2022-09-22T01:05:33.368Z,5.85
2022-09-22T01:07:36.073Z,5.60
2022-09-22T01:09:38.878Z,5.97
2022-09-22T01:11:41.501Z,6.35
2022-09-22T01:13:53.317Z,4.80
2022-09-22T01:16:09.240Z,4.85
2022-09-22T01:18:19.769Z,6.60
2022-09-22T01:21:00.943Z,6.78
2022-09-22T01:23:20.300Z,5.78
2022-09-22T01:25:49.063Z,6.70
2022-09-22T01:28:19.723Z,5.95
2022-09-22T01:30:24.857Z,6.25
2022-09-22T01:32:31.460Z,5.70
2022-09-22T01:34:39.672Z,5.70
2022-09-22T01:36:47.302Z,6.53
2022-09-22T01:38:59.204Z,6.38
2022-09-22T01:41:03.759Z,6.05
2022-09-22T01:43:13.460Z,6.78
2022-09-22T01:45:17.866Z,6.53
2022-09-22T01:47:24.222Z,6.72
2022-09-22T01:49:28.968Z,6.72
2022-09-22T01:51:35.461Z,7.25
2022-09-22T01:53:41.028Z,7.70
2022-09-22T01:55:46.651Z,6.28
2022-09-22T01:57:55.426Z,6.60
2022-09-22T02:00:02.236Z,8.35
2022-09-22T02:02:10.408Z,7.15
2022-09-22T02:04:18.374Z,7.50
2022-09-22T02:06:26.759Z,6.50
2022-09-22T02:08:35.611Z,7.63
2022-09-22T02:10:42.063Z,6.85
2022-09-22T02:12:43.747Z,7.93
2022-09-22T02:14:46.190Z,8.05
2022-09-22T02:16:47.742Z,7.05
2022-09-22T02:18:53.277Z,6.05
2022-09-22T02:20:56.313Z,6.22
2022-09-22T02:22:57.872Z,6.30
2022-09-22T02:24:59.294Z,7.20
2022-09-22T02:27:04.455Z,8.23
2022-09-22T02:29:10.248Z,7.07
2022-09-22T02:31:20.956Z,6.07
2022-09-22T02:33:25.845Z,5.93
2022-09-22T02:35:32.531Z,6.47
2022-09-22T02:37:39.741Z,5.75
2022-09-22T02:39:46.924Z,5.22
2022-09-22T02:42:01.752Z,5.88
2022-09-22T02:44:08.479Z,6.72
2022-09-22T02:46:17.687Z,7.25
2022-09-22T02:48:23.546Z,6.03
2022-09-22T02:50:27.806Z,6.13
2022-09-22T02:52:29.390Z,5.68
2022-09-22T02:54:32.239Z,5.72
2022-09-22T02:56:34.582Z,5.75
2022-09-22T02:58:36.449Z,7.13
2022-09-22T03:00:37.905Z,8.20
2022-09-22T03:04:40.865Z,10.07
2022-09-22T03:06:42.456Z,9.90
2022-09-22T03:08:44.072Z,10.45
2022-09-22T03:10:46.925Z,8.57
2022-09-22T03:13:14.336Z,6.72
2022-09-22T03:15:10.491Z,7.35
2022-09-22T03:17:11.956Z,6.07
2022-09-22T03:21:14.751Z,5.38
2022-09-22T03:25:17.905Z,7.00
2022-09-22T03:27:20.743Z,7.82
2022-09-22T03:29:22.237Z,7.70
2022-09-22T03:33:25.138Z,5.50
2022-09-22T03:37:28.017Z,5.38
2022-09-22T03:39:29.517Z,7.18
2022-09-22T03:43:33.626Z,6.40
2022-09-22T03:45:35.077Z,5.10
2022-09-22T03:49:37.843Z,5.55
2022-09-22T03:53:40.604Z,5.88
2022-09-22T03:57:43.440Z,5.88
2022-09-22T03:59:46.315Z,6.22
2022-09-22T04:01:47.789Z,6.03
2022-09-22T04:05:51.213Z,5.32
2022-09-22T04:07:53.082Z,6.82
2022-09-22T04:09:54.522Z,5.82
2022-09-22T04:13:57.545Z,6.10
2022-09-22T04:16:00.569Z,5.15
2022-09-22T04:18:02.488Z,5.72
2022-09-22T04:20:04.965Z,6.35
2022-09-22T04:22:06.455Z,5.90
2022-09-22T04:26:09.356Z,5.93
2022-09-22T04:30:12.943Z,6.45
2022-09-22T04:32:16.438Z,6.32
2022-09-22T04:34:17.969Z,5.82
2022-09-22T04:38:20.804Z,6.50
2022-09-22T04:42:24.426Z,6.38
2022-09-22T04:44:25.878Z,5.55
2022-09-22T04:48:30.109Z,5.50
2022-09-22T04:50:31.630Z,6.60
2022-09-22T04:54:34.404Z,5.60
2022-09-22T04:56:35.860Z,6.00
2022-09-22T05:00:38.682Z,6.50
2022-09-22T05:04:43.100Z,6.75
2022-09-22T05:06:44.826Z,8.85
2022-09-22T05:08:46.252Z,6.72
2022-09-22T05:10:47.730Z,6.70
2022-09-22T05:14:50.514Z,6.90
2022-09-22T05:18:53.374Z,7.50
2022-09-22T05:22:57.584Z,6.68
2022-09-22T05:27:00.705Z,10.95
2022-09-22T05:31:04.149Z,8.88
2022-09-22T05:33:05.623Z,6.22
2022-09-22T05:37:10.170Z,8.20
2022-09-22T05:39:11.642Z,11.15
2022-09-22T05:43:14.551Z,6.63
2022-09-22T05:45:17.211Z,6.05
2022-09-22T05:47:18.820Z,9.30
2022-09-22T05:49:20.298Z,10.35
2022-09-22T05:53:24.403Z,9.38
2022-09-22T05:55:25.890Z,8.30
2022-09-22T05:59:28.654Z,11.38
2022-09-22T06:03:31.665Z,10.55
2022-09-22T06:05:36.052Z,10.32
2022-09-22T06:07:39.774Z,7.93
2022-09-22T06:09:42.750Z,12.45
2022-09-22T06:11:44.170Z,8.20
2022-09-22T06:15:47.562Z,9.20
2022-09-22T06:17:51.453Z,12.35
2022-09-22T06:19:53.045Z,8.77
2022-09-22T06:21:54.517Z,11.60
2022-09-22T06:25:59.198Z,11.38
2022-09-22T06:28:01.654Z,6.60
2022-09-22T06:30:03.755Z,5.95
2022-09-22T06:32:07.413Z,6.70
2022-09-22T06:34:08.974Z,7.35
2022-09-22T06:38:13.647Z,7.65
2022-09-22T06:40:17.508Z,4.82
2022-09-22T06:42:20.543Z,7.45
2022-09-22T06:44:22.190Z,8.20
2022-09-22T06:46:23.977Z,5.53
2022-09-22T06:48:25.525Z,7.78
2022-09-22T06:50:30.331Z,7.28
2022-09-22T06:52:35.508Z,15.27
2022-09-22T06:54:38.417Z,7.43
2022-09-22T06:59:05.540Z,5.60
2022-09-22T07:01:08.892Z,7.53
2022-09-22T07:03:16.137Z,5.57
2022-09-22T07:05:17.590Z,7.32
2022-09-22T07:09:20.379Z,8.70
2022-09-22T07:13:23.595Z,6.57
2022-09-22T07:15:26.444Z,5.50
2022-09-22T07:17:27.889Z,7.60
2022-09-22T07:21:32.211Z,6.63
2022-09-22T07:23:34.608Z,4.38
2022-09-22T07:25:36.114Z,7.28
2022-09-22T07:29:39.559Z,5.63
2022-09-22T07:31:42.432Z,4.35
2022-09-22T07:33:46.329Z,6.68
2022-09-22T07:35:47.856Z,4.93
2022-09-22T07:37:53.575Z,4.60
2022-09-22T07:39:55.063Z,5.57
2022-09-22T07:43:59.475Z,5.00
2022-09-22T07:46:01.237Z,6.10
2022-09-22T07:48:05.174Z,4.15
2022-09-22T07:50:07.446Z,4.75
2022-09-22T07:52:08.979Z,5.30
2022-09-22T07:54:10.750Z,5.30
2022-09-22T07:56:14.325Z,5.30
2022-09-22T07:58:25.149Z,5.75
2022-09-22T08:00:29.306Z,4.25
2022-09-22T08:02:30.820Z,4.35
2022-09-22T08:04:33.652Z,4.53
2022-09-22T08:06:35.130Z,5.50
2022-09-22T08:08:41.358Z,3.88
2022-09-22T08:10:43.057Z,4.53
2022-09-22T08:12:44.754Z,3.63
2022-09-22T08:14:46.205Z,4.15
2022-09-22T08:18:50.434Z,3.80
2022-09-22T08:20:53.243Z,4.18
2022-09-22T08:22:55.036Z,3.33
2022-09-22T08:24:56.510Z,5.65
2022-09-22T08:26:58.105Z,3.90
2022-09-22T08:28:59.769Z,3.13
2022-09-22T08:31:02.004Z,4.80
2022-09-22T08:33:03.606Z,3.70
2022-09-22T08:35:06.211Z,3.42
2022-09-22T08:37:09.127Z,3.45
2022-09-22T08:39:10.581Z,3.92
2022-09-22T08:41:17.521Z,2.58
2022-09-22T08:43:18.983Z,3.15
2022-09-22T08:45:29.896Z,2.40
2022-09-22T08:47:37.013Z,2.92
2022-09-22T08:49:43.086Z,3.30
2022-09-22T08:51:49.553Z,2.92
2022-09-22T08:53:52.910Z,2.00
2022-09-22T08:56:01.046Z,3.85
2022-09-22T08:58:07.503Z,2.90
2022-09-22T09:00:13.053Z,2.55
2022-09-22T09:02:38.489Z,3.47
2022-09-22T09:05:00.443Z,2.67
2022-09-22T09:07:10.161Z,2.17
2022-09-22T09:09:33.749Z,2.95
2022-09-22T09:11:56.506Z,0.73
2022-09-22T09:14:12.369Z,1.52
2022-09-22T09:16:30.907Z,0.95
2022-09-22T09:18:38.976Z,2.50
2022-09-22T09:20:44.875Z,1.85
2022-09-22T09:22:50.760Z,1.88
2022-09-22T09:27:23.041Z,1.52
2022-09-22T09:29:30.824Z,3.45
2022-09-22T09:33:54.539Z,1.58
2022-09-22T09:35:56.321Z,1.95
2022-09-22T09:38:00.902Z,2.40
2022-09-22T09:40:07.395Z,1.70
2022-09-22T09:42:22.568Z,7.38
2022-09-22T09:44:27.964Z,2.58
2022-09-22T09:46:43.785Z,3.45
2022-09-22T09:49:01.659Z,2.88
2022-09-22T09:51:03.351Z,3.53
2022-09-22T09:53:08.421Z,2.50
2022-09-22T09:55:19.888Z,3.53
2022-09-22T09:57:27.485Z,1.85
2022-09-22T09:59:29.752Z,3.53
2022-09-22T10:01:31.272Z,3.70
2022-09-22T10:03:34.193Z,3.55
2022-09-22T10:05:36.039Z,2.78
2022-09-22T10:07:42.212Z,3.05
2022-09-22T10:09:44.535Z,3.95
2022-09-22T10:11:57.906Z,3.42
2022-09-22T10:13:59.414Z,6.32
2022-09-22T10:16:07.687Z,3.08
2022-09-22T10:18:33.549Z,3.72
2022-09-22T10:20:35.232Z,4.13
2022-09-22T10:22:39.729Z,4.38
2022-09-22T10:24:52.880Z,8.35
2022-09-22T10:26:55.941Z,3.72
2022-09-22T10:29:13.381Z,5.22
2022-09-22T10:31:20.622Z,3.95
2022-09-22T10:33:22.147Z,3.15
2022-09-22T10:35:29.495Z,5.40
2022-09-22T10:37:31.833Z,5.03
2022-09-22T10:39:40.031Z,3.40
2022-09-22T10:41:42.241Z,2.05
2022-09-22T10:43:49.152Z,1.73
2022-09-22T10:46:01.163Z,4.97
2022-09-22T10:48:13.633Z,1.27
2022-09-22T10:50:53.302Z,2.97
2022-09-22T10:53:01.271Z,5.40
2022-09-22T10:55:20.603Z,4.00
2022-09-22T10:57:38.406Z,2.47
2022-09-22T11:00:08.847Z,3.00
2022-09-22T11:02:37.756Z,7.80
2022-09-22T11:04:54.792Z,4.80
2022-09-22T11:07:12.499Z,1.75
2022-09-22T11:09:23.108Z,3.42
2022-09-22T11:11:27.928Z,3.83
2022-09-22T11:13:39.031Z,4.55
2022-09-22T11:15:58.551Z,2.17
2022-09-22T11:18:15.786Z,4.38
2022-09-22T11:20:34.696Z,2.22
2022-09-22T11:23:04.496Z,3.65
2022-09-22T11:25:18.114Z,2.17
2022-09-22T11:27:25.854Z,2.63
2022-09-22T11:29:54.520Z,1.95
2022-09-22T11:32:06.540Z,1.92
2022-09-22T11:34:36.434Z,2.90
2022-09-22T11:36:51.573Z,1.60
2022-09-22T11:39:19.745Z,3.35
2022-09-22T11:41:29.594Z,1.80
2022-09-22T11:43:47.355Z,2.13
2022-09-22T11:45:56.539Z,1.08
2022-09-22T11:48:11.201Z,1.58
2022-09-22T11:50:27.815Z,1.23
2022-09-22T11:52:40.415Z,2.35
2022-09-22T11:55:00.835Z,2.28
2022-09-22T11:57:07.342Z,3.20
2022-09-22T11:59:24.818Z,2.22
2022-09-22T12:01:31.871Z,2.97
2022-09-22T12:03:39.070Z,2.70
2022-09-22T12:05:44.636Z,2.08
2022-09-22T12:07:51.321Z,3.03
2022-09-22T12:09:57.936Z,1.80
2022-09-22T12:12:02.799Z,3.20
2022-09-22T12:14:05.476Z,1.80
2022-09-22T12:16:13.121Z,3.72
2022-09-22T12:20:35.286Z,2.20
2022-09-22T12:22:58.388Z,2.30
2022-09-22T12:24:59.919Z,1.10
2022-09-22T12:27:10.778Z,1.38
2022-09-22T12:29:23.966Z,4.05
2022-09-22T12:31:33.545Z,3.90
2022-09-22T12:33:37.449Z,2.65
2022-09-22T12:35:40.414Z,5.00
2022-09-22T12:37:42.008Z,2.45
2022-09-22T12:39:46.489Z,3.22
2022-09-22T12:41:49.374Z,1.73
2022-09-22T12:43:50.878Z,1.88
2022-09-22T12:45:54.797Z,3.58
2022-09-22T12:47:59.682Z,2.55
2022-09-22T12:50:03.952Z,2.70
2022-09-22T12:52:36.736Z,2.65
2022-09-22T12:54:38.605Z,3.72
2022-09-22T12:56:44.770Z,4.40
2022-09-22T12:58:46.271Z,2.13
2022-09-22T13:00:48.896Z,1.98
2022-09-22T13:02:50.463Z,2.85
2022-09-22T13:05:29.294Z,2.35
2022-09-22T13:07:35.649Z,2.00
2022-09-22T13:09:37.179Z,6.55
2022-09-22T13:12:20.057Z,7.13
2022-09-22T13:15:00.280Z,6.97
2022-09-22T13:17:38.529Z,4.05
2022-09-22T13:19:53.273Z,5.53
2022-09-22T13:21:54.785Z,3.75
2022-09-22T13:23:58.445Z,1.85
2022-09-22T13:26:07.224Z,3.75
2022-09-22T13:28:14.608Z,2.35
2022-09-22T13:30:16.094Z,2.90
2022-09-22T13:32:20.432Z,3.30
2022-09-22T13:34:28.205Z,4.63
2022-09-22T13:36:29.658Z,1.25
2022-09-22T13:38:34.962Z,2.42
2022-09-22T13:40:36.574Z,2.13
2022-09-22T13:42:42.647Z,2.30
2022-09-22T13:44:48.078Z,2.92
2022-09-22T13:46:50.836Z,3.75
2022-09-22T13:48:55.471Z,2.95
2022-09-22T13:51:02.388Z,4.03
2022-09-22T13:53:06.679Z,2.45
2022-09-22T13:55:13.231Z,1.42
2022-09-22T13:57:21.721Z,2.00
2022-09-22T13:59:24.569Z,2.47
2022-09-22T14:01:28.240Z,2.20
2022-09-22T14:03:36.078Z,3.00
2022-09-22T14:05:37.608Z,4.45
2022-09-22T14:08:01.033Z,3.13
2022-09-22T14:10:03.079Z,9.00
2022-09-22T14:12:08.262Z,5.88
2022-09-22T14:14:21.820Z,3.67
2022-09-22T14:16:28.379Z,3.35
2022-09-22T14:18:30.656Z,5.28
2022-09-22T14:20:32.303Z,8.43
2022-09-22T14:22:43.161Z,3.83
2022-09-22T14:24:48.513Z,6.32
2022-09-22T14:26:52.593Z,6.07
2022-09-22T14:28:56.742Z,5.35
2022-09-22T14:30:58.532Z,4.97
2022-09-22T14:33:03.176Z,4.28
2022-09-22T14:35:07.654Z,3.97
2022-09-22T14:37:18.534Z,4.88
2022-09-22T14:39:30.967Z,6.90
2022-09-22T14:41:36.941Z,10.63
2022-09-22T14:43:38.423Z,8.20
2022-09-22T14:45:56.059Z,4.75
2022-09-22T14:48:16.258Z,5.95
2022-09-22T14:50:19.584Z,5.13
2022-09-22T14:52:29.332Z,4.43
2022-09-22T14:54:33.316Z,4.63
2022-09-22T14:56:35.078Z,5.35
2022-09-22T14:58:40.785Z,8.32
2022-09-22T15:00:51.701Z,25.85
2022-09-22T15:02:54.511Z,16.95
2022-09-22T15:04:56.001Z,8.27
2022-09-22T15:06:58.763Z,8.02
2022-09-22T15:09:02.545Z,6.43
2022-09-22T15:11:05.581Z,5.70
2022-09-22T15:13:18.019Z,8.77
2022-09-22T15:15:21.388Z,8.48
2022-09-22T15:17:38.438Z,5.15
2022-09-22T15:19:39.869Z,5.47
2022-09-22T15:21:42.661Z,5.95
2022-09-22T15:23:46.946Z,4.63
2022-09-22T15:25:49.325Z,5.63
2022-09-22T15:27:52.228Z,5.38
2022-09-22T15:29:53.660Z,4.85
2022-09-22T15:31:55.192Z,5.35
2022-09-22T15:33:58.353Z,4.90
2022-09-22T15:36:02.947Z,3.92
2022-09-22T15:38:04.829Z,5.22
2022-09-22T15:40:14.461Z,4.35
2022-09-22T15:42:16.139Z,4.30
2022-09-22T15:44:19.336Z,13.50
2022-09-22T15:46:27.565Z,7.80
2022-09-22T15:48:31.312Z,5.32
2022-09-22T15:50:33.302Z,4.95
2022-09-22T15:52:34.758Z,5.47
2022-09-22T15:54:36.260Z,5.05
2022-09-22T15:56:38.543Z,3.70
2022-09-22T15:58:42.620Z,4.85
2022-09-22T16:00:46.681Z,5.63
2022-09-22T16:02:48.645Z,4.03
2022-09-22T16:04:50.245Z,5.30
2022-09-22T16:06:55.461Z,4.28
2022-09-22T16:08:57.000Z,4.53
2022-09-22T16:10:59.171Z,4.97
2022-09-22T16:13:00.608Z,5.40
2022-09-22T16:15:02.048Z,3.60
2022-09-22T16:17:05.004Z,5.35
2022-09-22T16:19:06.719Z,2.47
2022-09-22T16:21:23.867Z,2.88
2022-09-22T16:23:25.357Z,4.07
2022-09-22T16:25:26.779Z,3.40
2022-09-22T16:27:28.331Z,9.63
2022-09-22T16:29:29.810Z,10.68
2022-09-22T16:31:31.633Z,8.23
2022-09-22T16:33:34.943Z,6.50
2022-09-22T16:35:36.448Z,5.68
2022-09-22T16:37:37.887Z,4.47
2022-09-22T16:39:39.346Z,6.57
2022-09-22T16:41:44.531Z,6.10
2022-09-22T16:43:46.269Z,5.32
2022-09-22T16:45:47.728Z,5.25
2022-09-22T16:47:49.221Z,3.63
2022-09-22T16:49:52.033Z,4.90
2022-09-22T16:51:53.529Z,3.58
2022-09-22T16:53:55.145Z,7.97
2022-09-22T16:55:56.716Z,6.18
2022-09-22T16:57:58.397Z,6.07
2022-09-22T16:59:59.978Z,6.05
2022-09-22T17:02:01.482Z,10.65
2022-09-22T17:04:04.193Z,9.30
2022-09-22T17:06:08.529Z,7.68
2022-09-22T17:08:10.015Z,6.57
2022-09-22T17:10:11.471Z,8.32
2022-09-22T17:12:12.938Z,7.65
2022-09-22T17:14:16.203Z,6.82
2022-09-22T17:16:20.987Z,11.40
2022-09-22T17:18:22.513Z,5.20
2022-09-22T17:20:23.944Z,6.53
2022-09-22T17:22:26.725Z,7.30
2022-09-22T17:24:28.221Z,6.05
2022-09-22T17:26:31.873Z,6.68
2022-09-22T17:28:33.648Z,5.43
2022-09-22T17:30:35.087Z,5.97
2022-09-22T17:32:36.508Z,6.50
2022-09-22T17:34:38.096Z,6.50
2022-09-22T17:36:39.934Z,6.47
2022-09-22T17:38:42.827Z,10.40
2022-09-22T17:40:44.296Z,6.22
2022-09-22T17:42:45.920Z,6.82
2022-09-22T17:44:47.838Z,8.00
2022-09-22T17:46:50.331Z,9.20
2022-09-22T17:48:52.142Z,9.30
2022-09-22T17:50:53.550Z,8.45
2022-09-22T17:54:59.537Z,9.00
2022-09-22T17:57:00.975Z,8.95
2022-09-22T17:59:02.419Z,8.85
2022-09-22T18:01:04.061Z,8.48
2022-09-22T18:03:05.609Z,8.43
2022-09-22T18:05:09.682Z,8.40
2022-09-22T18:07:13.064Z,8.52
2022-09-22T18:09:14.568Z,8.00
2022-09-22T18:11:17.341Z,8.88
2022-09-22T18:13:18.805Z,17.45
2022-09-22T18:15:20.311Z,21.13
2022-09-22T18:17:24.179Z,17.13
2022-09-22T18:19:25.624Z,12.05
2022-09-22T18:21:27.106Z,14.73
2022-09-22T18:23:28.620Z,15.98
2022-09-22T18:25:30.115Z,16.65
2022-09-22T18:27:32.901Z,12.45
2022-09-22T18:29:34.466Z,13.55
2022-09-22T18:31:36.451Z,13.00
2022-09-22T18:33:37.892Z,12.38
2022-09-22T18:37:45.742Z,11.20
2022-09-22T18:39:47.343Z,10.20
2022-09-22T18:41:48.849Z,9.20
2022-09-22T18:43:51.692Z,10.23
2022-09-22T18:45:53.164Z,9.88
2022-09-22T18:47:54.615Z,8.93
2022-09-22T18:49:56.062Z,9.13
2022-09-22T18:51:57.855Z,11.35
2022-09-22T18:53:59.429Z,11.23
2022-09-22T18:56:07.915Z,10.90
2022-09-22T18:58:09.361Z,19.70
2022-09-22T19:02:15.896Z,19.10
2022-09-22T19:04:19.274Z,15.90
2022-09-22T19:06:20.799Z,25.17
2022-09-22T19:08:22.328Z,29.42
2022-09-22T19:10:23.877Z,33.95
2022-09-22T19:12:25.325Z,37.47
2022-09-22T19:16:29.482Z,47.53
2022-09-22T19:18:30.937Z,27.73
2022-09-22T19:22:33.696Z,32.45
2022-09-22T19:26:37.196Z,36.08
2022-09-22T19:28:38.693Z,25.15
2022-09-22T19:30:40.153Z,17.55
2022-09-22T19:34:44.558Z,20.02
2022-09-22T19:36:46.003Z,16.27
2022-09-22T19:40:48.842Z,17.15
2022-09-22T19:42:50.823Z,17.50
2022-09-22T19:44:52.332Z,16.38
2022-09-22T19:46:53.799Z,20.85
2022-09-22T19:48:56.679Z,18.27
2022-09-22T19:50:58.184Z,22.90
2022-09-22T19:52:59.638Z,20.38
2022-09-22T19:57:02.358Z,21.15
2022-09-22T20:01:06.880Z,17.85
2022-09-22T20:03:08.435Z,18.98
2022-09-22T20:05:18.193Z,15.15
2022-09-22T20:07:19.744Z,18.13
2022-09-22T20:09:21.253Z,18.55
2022-09-22T20:13:28.387Z,16.05
2022-09-22T20:17:31.285Z,17.75
2022-09-22T20:21:36.822Z,17.08
2022-09-22T20:23:38.365Z,15.07
2022-09-22T20:25:39.956Z,13.27
2022-09-22T20:27:41.459Z,16.00
2022-09-22T20:31:44.686Z,16.70
2022-09-22T20:33:46.234Z,17.33
2022-09-22T20:35:48.554Z,22.80
2022-09-22T20:37:51.586Z,19.63
2022-09-22T20:39:53.264Z,20.13
2022-09-22T20:41:54.774Z,15.27
2022-09-22T20:43:56.295Z,16.42
2022-09-22T20:46:00.278Z,16.13
2022-09-22T20:48:02.030Z,18.70
2022-09-22T20:50:04.124Z,19.15
2022-09-22T20:52:05.682Z,15.43
2022-09-22T20:54:08.659Z,15.63
2022-09-22T20:56:11.718Z,15.65
2022-09-22T20:58:13.266Z,16.98
2022-09-22T21:00:15.074Z,16.95
2022-09-22T21:02:16.613Z,16.08
2022-09-22T21:04:18.218Z,16.25
2022-09-22T21:06:19.791Z,15.85
2022-09-22T21:08:21.283Z,15.38
2022-09-22T21:10:24.249Z,14.35
2022-09-22T21:12:30.795Z,16.30
2022-09-22T21:14:32.923Z,13.35
2022-09-22T21:16:36.301Z,12.55
2022-09-22T21:18:38.292Z,14.52
2022-09-22T21:20:40.389Z,14.73
2022-09-22T21:22:41.948Z,14.35
2022-09-22T21:24:43.473Z,14.82
2022-09-22T21:26:46.423Z,15.07
2022-09-22T21:28:50.120Z,13.93
2022-09-22T21:30:55.506Z,15.13
2022-09-22T21:32:57.089Z,16.95
2022-09-22T21:36:59.974Z,15.15
2022-09-22T21:41:04.355Z,13.50
2022-09-22T21:43:07.293Z,27.92
2022-09-22T21:45:09.513Z,20.30
2022-09-22T21:47:11.071Z,15.30
2022-09-22T21:49:12.663Z,14.75
2022-09-22T21:51:16.102Z,13.20
2022-09-22T21:53:17.555Z,13.23
2022-09-22T21:57:20.402Z,14.05
2022-09-22T21:59:23.275Z,16.15
2022-09-22T22:01:27.546Z,13.63
2022-09-22T22:03:29.030Z,15.05
2022-09-22T22:07:31.761Z,15.55
2022-09-22T22:11:36.369Z,13.68
2022-09-22T22:13:39.419Z,16.63
2022-09-22T22:15:42.266Z,16.02
2022-09-22T22:17:43.775Z,13.48
2022-09-22T22:21:48.252Z,15.65
2022-09-22T22:23:51.451Z,16.35
2022-09-22T22:25:55.998Z,15.38
2022-09-22T22:27:57.415Z,15.40
2022-09-22T22:29:58.891Z,18.42
2022-09-22T22:34:03.646Z,14.55
2022-09-22T22:36:06.571Z,15.85
2022-09-22T22:38:08.070Z,19.17
2022-09-22T22:42:11.028Z,16.63
2022-09-22T22:46:13.861Z,17.23
2022-09-22T22:50:18.037Z,15.60
2022-09-22T22:54:20.792Z,15.52
2022-09-22T22:58:26.102Z,16.63
2022-09-22T23:00:27.609Z,12.52
2022-09-22T23:04:32.467Z,12.13
2022-09-22T23:06:35.864Z,13.50
2022-09-22T23:08:37.786Z,14.23
2022-09-22T23:10:39.225Z,12.68
2022-09-22T23:12:40.686Z,12.05
2022-09-22T23:16:45.091Z,11.93
2022-09-22T23:18:47.582Z,11.05
2022-09-22T23:20:53.351Z,11.77
2022-09-22T23:22:54.785Z,11.80
2022-09-22T23:26:57.540Z,10.52
2022-09-22T23:28:59.128Z,11.23
2022-09-22T23:31:02.315Z,12.45
2022-09-22T23:33:03.840Z,9.90
2022-09-22T23:37:08.847Z,9.93
2022-09-22T23:39:12.019Z,11.60
2022-09-22T23:41:13.702Z,10.90
2022-09-22T23:43:15.211Z,13.45
2022-09-22T23:47:18.166Z,14.18
2022-09-22T23:49:19.718Z,13.40
2022-09-22T23:51:21.182Z,12.82
2022-09-22T23:55:26.316Z,15.20
2022-09-22T23:57:27.817Z,13.88
